createdAt,value
2023-02-14T00:01:30.423Z,38.40
2023-02-14T00:04:00.638Z,40.85
2023-02-14T00:06:27.835Z,46.00
2023-02-14T00:08:56.720Z,42.33
2023-02-14T00:11:23.276Z,41.20
2023-02-14T00:14:10.974Z,43.38
2023-02-14T00:16:37.571Z,37.35
2023-02-14T00:19:06.779Z,42.53
2023-02-14T00:21:36.192Z,40.80
2023-02-14T00:24:04.910Z,37.55
2023-02-14T00:26:31.527Z,40.78
2023-02-14T00:29:00.287Z,37.95
2023-02-14T00:31:29.531Z,35.30
2023-02-14T00:33:58.543Z,37.35
2023-02-14T00:36:27.391Z,40.13
2023-02-14T00:38:53.936Z,39.05
2023-02-14T00:41:23.333Z,41.13
2023-02-14T00:43:52.146Z,39.43
2023-02-14T00:46:23.362Z,38.38
2023-02-14T00:48:50.494Z,38.90
2023-02-14T00:51:22.604Z,37.83
2023-02-14T00:53:53.004Z,38.40
2023-02-14T00:56:20.536Z,38.73
2023-02-14T00:58:47.531Z,40.35
2023-02-14T01:01:17.886Z,37.30
2023-02-14T01:03:47.588Z,37.78
2023-02-14T01:06:14.198Z,39.17
2023-02-14T01:08:43.034Z,42.03
2023-02-14T01:11:16.035Z,39.15
2023-02-14T01:13:43.038Z,35.63
2023-02-14T01:16:12.846Z,36.17
2023-02-14T01:18:39.804Z,37.38
2023-02-14T01:21:16.463Z,36.73
2023-02-14T01:23:43.960Z,39.70
2023-02-14T01:26:12.395Z,43.78
2023-02-14T01:28:39.426Z,36.97
2023-02-14T01:31:11.893Z,40.97
2023-02-14T01:33:43.252Z,40.90
2023-02-14T01:36:22.773Z,39.08
2023-02-14T01:38:53.142Z,42.97
2023-02-14T01:41:25.947Z,43.92
2023-02-14T01:44:15.855Z,45.60
2023-02-14T01:46:45.030Z,39.20
2023-02-14T01:49:21.721Z,39.90
2023-02-14T01:52:04.309Z,39.33
2023-02-14T01:54:34.089Z,41.92
2023-02-14T01:57:06.670Z,39.85
2023-02-14T01:59:38.531Z,39.77
2023-02-14T02:02:08.546Z,40.55
2023-02-14T02:04:41.800Z,38.03
2023-02-14T02:07:17.665Z,36.17
2023-02-14T02:09:49.298Z,41.85
2023-02-14T02:12:18.485Z,39.47
2023-02-14T02:14:47.540Z,39.70
2023-02-14T02:17:30.620Z,43.33
2023-02-14T02:20:15.820Z,38.58
2023-02-14T02:23:09.456Z,40.28
2023-02-14T02:25:36.119Z,39.17
2023-02-14T02:28:17.637Z,40.03
2023-02-14T02:31:03.221Z,45.08
2023-02-14T02:33:32.627Z,48.17
2023-02-14T02:36:19.170Z,44.28
2023-02-14T02:38:55.349Z,38.57
2023-02-14T02:41:31.027Z,41.25
2023-02-14T02:44:15.904Z,43.35
2023-02-14T02:47:01.367Z,38.08
2023-02-14T02:50:11.846Z,42.05
2023-02-14T02:53:03.361Z,36.70
2023-02-14T02:56:01.898Z,43.45
2023-02-14T02:59:02.445Z,38.72
2023-02-14T03:01:41.433Z,40.92
2023-02-14T03:04:30.582Z,44.70
2023-02-14T03:06:59.123Z,41.30
2023-02-14T03:09:25.589Z,40.88
2023-02-14T03:12:18.278Z,39.15
2023-02-14T03:14:57.858Z,43.45
2023-02-14T03:17:36.376Z,39.25
2023-02-14T03:20:29.549Z,41.23
2023-02-14T03:23:11.171Z,45.95
2023-02-14T03:26:06.257Z,42.55
2023-02-14T03:28:47.481Z,44.17
2023-02-14T03:31:22.862Z,39.70
2023-02-14T03:34:17.581Z,48.73
2023-02-14T03:37:07.382Z,48.10
2023-02-14T03:39:33.835Z,44.42
2023-02-14T03:42:09.726Z,43.00
2023-02-14T03:44:39.763Z,43.97
2023-02-14T03:47:13.331Z,42.17
2023-02-14T03:49:48.774Z,46.53
2023-02-14T03:52:17.012Z,56.08
2023-02-14T03:54:46.648Z,47.08
2023-02-14T03:57:32.883Z,47.33
2023-02-14T04:00:02.619Z,49.07
2023-02-14T04:02:41.580Z,51.13
2023-02-14T04:05:15.878Z,41.72
2023-02-14T04:07:47.740Z,43.45
2023-02-14T04:10:20.124Z,53.05
2023-02-14T04:12:47.028Z,57.47
2023-02-14T04:15:14.680Z,52.35
2023-02-14T04:18:00.195Z,53.13
2023-02-14T04:20:27.842Z,50.65
2023-02-14T04:22:55.595Z,65.60
2023-02-14T04:25:23.865Z,53.27
2023-02-14T04:27:50.455Z,55.80
2023-02-14T04:30:18.153Z,54.83
2023-02-14T04:32:47.051Z,66.38
2023-02-14T04:35:13.800Z,58.00
2023-02-14T04:37:40.568Z,61.33
2023-02-14T04:40:10.487Z,59.60
2023-02-14T04:42:37.048Z,62.08
2023-02-14T04:45:06.214Z,67.05
2023-02-14T04:47:32.796Z,54.38
2023-02-14T04:50:01.587Z,52.83
2023-02-14T04:52:28.214Z,58.92
2023-02-14T04:54:57.039Z,57.33
2023-02-14T04:57:23.626Z,55.22
2023-02-14T04:59:52.405Z,54.22
2023-02-14T05:02:19.001Z,62.87
2023-02-14T05:04:50.346Z,54.70
2023-02-14T05:07:19.387Z,62.28
2023-02-14T05:09:50.832Z,50.20
2023-02-14T05:12:17.519Z,54.03
2023-02-14T05:14:46.858Z,55.63
2023-02-14T05:17:16.875Z,53.35
2023-02-14T05:19:43.431Z,55.05
2023-02-14T05:22:10.101Z,66.55
2023-02-14T05:24:36.682Z,51.20
2023-02-14T05:27:03.369Z,56.67
2023-02-14T05:29:32.135Z,58.45
2023-02-14T05:31:58.806Z,55.47
2023-02-14T05:34:25.427Z,45.67
2023-02-14T05:36:52.025Z,51.88
2023-02-14T05:39:18.610Z,57.10
2023-02-14T05:41:47.627Z,54.22
2023-02-14T05:44:19.181Z,56.40
2023-02-14T05:46:48.148Z,63.80
2023-02-14T05:49:14.804Z,59.75
2023-02-14T05:51:41.381Z,51.20
2023-02-14T05:54:10.024Z,55.33
2023-02-14T05:56:42.317Z,53.47
2023-02-14T05:59:08.902Z,56.95
2023-02-14T06:01:37.615Z,52.38
2023-02-14T06:04:07.215Z,48.90
2023-02-14T06:06:36.843Z,46.67
2023-02-14T06:09:03.574Z,58.65
2023-02-14T06:11:32.618Z,52.40
2023-02-14T06:13:59.174Z,52.08
2023-02-14T06:16:25.786Z,52.93
2023-02-14T06:18:52.328Z,49.72
2023-02-14T06:21:18.844Z,48.50
2023-02-14T06:23:45.384Z,48.08
2023-02-14T06:26:14.431Z,46.92
2023-02-14T06:28:41.075Z,42.57
2023-02-14T06:31:07.729Z,44.83
2023-02-14T06:33:36.516Z,46.15
2023-02-14T06:36:03.099Z,50.22
2023-02-14T06:38:31.820Z,48.25
2023-02-14T06:41:13.150Z,43.40
2023-02-14T06:43:39.731Z,35.92
2023-02-14T06:46:09.059Z,44.88
2023-02-14T06:48:38.076Z,46.25
2023-02-14T06:51:09.998Z,42.75
2023-02-14T06:53:39.031Z,49.17
2023-02-14T06:56:05.930Z,49.67
2023-02-14T06:58:40.290Z,52.92
2023-02-14T07:01:09.094Z,48.42
2023-02-14T07:03:35.660Z,41.90
2023-02-14T07:06:02.398Z,48.47
2023-02-14T07:08:28.977Z,45.20
2023-02-14T07:11:02.314Z,45.35
2023-02-14T07:13:32.176Z,48.70
2023-02-14T07:16:01.505Z,42.08
2023-02-14T07:18:31.635Z,51.33
2023-02-14T07:21:00.885Z,49.78
2023-02-14T07:23:30.074Z,56.15
2023-02-14T07:25:58.828Z,56.47
2023-02-14T07:28:25.354Z,49.08
2023-02-14T07:30:54.718Z,46.57
2023-02-14T07:33:21.298Z,49.40
2023-02-14T07:35:50.160Z,48.97
2023-02-14T07:38:16.666Z,59.97
2023-02-14T07:40:43.233Z,54.00
2023-02-14T07:43:10.167Z,47.40
2023-02-14T07:45:39.121Z,46.83
2023-02-14T07:48:05.965Z,50.33
2023-02-14T07:50:34.868Z,54.15
2023-02-14T07:53:01.464Z,46.80
2023-02-14T07:55:30.859Z,52.07
2023-02-14T07:57:59.512Z,48.22
2023-02-14T08:00:26.391Z,57.72
2023-02-14T08:02:53.203Z,46.38
2023-02-14T08:05:22.674Z,49.83
2023-02-14T08:07:51.475Z,44.37
2023-02-14T08:10:20.614Z,47.10
2023-02-14T08:12:59.126Z,48.63
2023-02-14T08:15:53.903Z,43.17
2023-02-14T08:18:23.182Z,45.33
2023-02-14T08:20:50.066Z,48.63
2023-02-14T08:23:18.740Z,51.67
2023-02-14T08:25:48.206Z,48.50
2023-02-14T08:28:22.205Z,47.92
2023-02-14T08:30:51.261Z,50.53
2023-02-14T08:33:23.373Z,50.27
2023-02-14T08:35:52.047Z,46.13
2023-02-14T08:38:22.098Z,48.35
2023-02-14T08:40:48.784Z,54.25
2023-02-14T08:43:18.119Z,43.85
2023-02-14T08:45:44.985Z,53.33
2023-02-14T08:48:18.078Z,54.80
2023-02-14T08:50:44.649Z,70.70
2023-02-14T08:53:17.104Z,49.00
2023-02-14T08:55:43.714Z,49.75
2023-02-14T08:58:13.234Z,42.23
2023-02-14T09:00:40.093Z,49.28
2023-02-14T09:03:10.638Z,47.83
2023-02-14T09:05:37.252Z,48.30
2023-02-14T09:08:03.957Z,44.28
2023-02-14T09:10:32.609Z,45.37
2023-02-14T09:13:04.336Z,46.70
2023-02-14T09:15:33.186Z,49.08
2023-02-14T09:18:01.899Z,43.85
2023-02-14T09:20:28.420Z,39.28
2023-02-14T09:22:58.750Z,46.23
2023-02-14T09:25:25.290Z,42.42
2023-02-14T09:27:57.158Z,41.75
2023-02-14T09:30:26.205Z,41.97
2023-02-14T09:32:55.072Z,38.35
2023-02-14T09:35:24.078Z,44.57
2023-02-14T09:37:52.730Z,43.53
2023-02-14T09:40:20.438Z,48.90
2023-02-14T09:43:18.463Z,51.95
2023-02-14T09:45:54.818Z,49.35
2023-02-14T09:48:34.023Z,46.73
2023-02-14T09:51:08.450Z,43.17
2023-02-14T09:53:42.174Z,41.25
2023-02-14T09:56:17.635Z,36.95
2023-02-14T09:59:14.828Z,49.80
2023-02-14T10:01:48.085Z,48.03
2023-02-14T10:04:40.767Z,43.35
2023-02-14T10:07:22.444Z,48.53
2023-02-14T10:10:02.754Z,50.00
2023-02-14T10:12:37.895Z,47.63
2023-02-14T10:15:23.961Z,42.33
2023-02-14T10:18:05.900Z,44.80
2023-02-14T10:20:35.250Z,54.10
2023-02-14T10:23:22.762Z,43.33
2023-02-14T10:25:54.083Z,42.85
2023-02-14T10:28:30.374Z,48.53
2023-02-14T10:31:04.402Z,48.22
2023-02-14T10:33:38.835Z,45.90
2023-02-14T10:36:18.713Z,48.67
2023-02-14T10:38:57.677Z,54.95
2023-02-14T10:41:42.258Z,45.47
2023-02-14T10:44:24.023Z,50.08
2023-02-14T10:46:59.527Z,58.10
2023-02-14T10:49:44.028Z,61.53
2023-02-14T10:52:22.844Z,69.53
2023-02-14T10:54:58.215Z,63.07
2023-02-14T10:57:51.051Z,54.58
2023-02-14T11:00:25.813Z,72.47
2023-02-14T11:03:00.088Z,70.18
2023-02-14T11:05:31.663Z,66.05
2023-02-14T11:08:01.977Z,69.80
2023-02-14T11:10:35.734Z,70.28
2023-02-14T11:13:02.312Z,74.53
2023-02-14T11:15:42.259Z,80.30
2023-02-14T11:18:36.108Z,72.75
2023-02-14T11:21:17.775Z,73.07
2023-02-14T11:23:48.894Z,77.55
2023-02-14T11:26:34.949Z,75.07
2023-02-14T11:29:07.166Z,78.38
2023-02-14T11:31:36.706Z,75.35
2023-02-14T11:34:20.857Z,77.87
2023-02-14T11:36:49.862Z,76.00
2023-02-14T11:39:31.284Z,79.63
2023-02-14T11:42:01.110Z,68.53
2023-02-14T11:44:29.911Z,78.38
2023-02-14T11:47:18.096Z,82.17
2023-02-14T11:50:17.839Z,74.45
2023-02-14T11:52:56.690Z,80.97
2023-02-14T11:55:26.077Z,77.03
2023-02-14T11:57:57.044Z,72.90
2023-02-14T12:00:27.165Z,72.20
2023-02-14T12:02:57.939Z,82.30
2023-02-14T12:05:35.559Z,74.82
2023-02-14T12:08:08.075Z,76.10
2023-02-14T12:10:42.050Z,74.88
2023-02-14T12:13:08.605Z,77.27
2023-02-14T12:15:44.067Z,85.35
2023-02-14T12:18:29.226Z,74.00
2023-02-14T12:20:59.881Z,71.53
2023-02-14T12:23:38.815Z,88.75
2023-02-14T12:26:25.531Z,90.47
2023-02-14T12:29:14.319Z,82.88
2023-02-14T12:31:43.125Z,80.47
2023-02-14T12:34:13.263Z,81.93
2023-02-14T12:37:06.854Z,77.93
2023-02-14T12:40:05.784Z,77.13
2023-02-14T12:43:04.544Z,90.88
2023-02-14T12:46:08.754Z,84.28
2023-02-14T12:48:51.700Z,85.18
2023-02-14T12:51:34.647Z,81.03
2023-02-14T12:54:25.910Z,71.17
2023-02-14T12:57:08.299Z,74.68
2023-02-14T13:00:05.884Z,78.00
2023-02-14T13:02:41.427Z,79.47
2023-02-14T13:05:31.804Z,78.13
2023-02-14T13:08:23.808Z,72.40
2023-02-14T13:11:02.068Z,65.38
2023-02-14T13:13:34.882Z,75.40
2023-02-14T13:16:32.385Z,71.30
2023-02-14T13:19:14.403Z,68.47
2023-02-14T13:21:45.294Z,65.83
2023-02-14T13:24:25.632Z,70.20
2023-02-14T13:26:56.489Z,66.97
2023-02-14T13:29:27.431Z,74.13
2023-02-14T13:31:58.803Z,68.60
2023-02-14T13:34:44.384Z,69.87
2023-02-14T13:37:15.934Z,63.90
2023-02-14T13:39:48.991Z,64.60
2023-02-14T13:42:50.714Z,66.53
2023-02-14T13:45:29.518Z,65.90
2023-02-14T13:48:19.722Z,66.67
2023-02-14T13:51:02.438Z,63.20
2023-02-14T13:53:32.093Z,67.47
2023-02-14T13:56:01.649Z,62.55
2023-02-14T13:58:30.944Z,69.30
2023-02-14T14:00:57.721Z,66.53
2023-02-14T14:03:27.744Z,66.82
2023-02-14T14:06:10.928Z,60.65
2023-02-14T14:08:37.640Z,68.70
2023-02-14T14:11:11.640Z,59.08
2023-02-14T14:13:43.170Z,62.80
2023-02-14T14:16:28.166Z,50.00
2023-02-14T14:18:58.764Z,43.47
2023-02-14T14:21:31.766Z,43.63
2023-02-14T14:24:20.604Z,52.22
2023-02-14T14:26:48.866Z,43.83
2023-02-14T14:29:23.402Z,41.08
2023-02-14T14:31:55.841Z,42.22
2023-02-14T14:34:29.945Z,39.40
2023-02-14T14:37:10.757Z,36.08
2023-02-14T14:39:40.590Z,39.27
2023-02-14T14:42:15.214Z,34.17
2023-02-14T14:45:02.022Z,39.90
2023-02-14T14:47:37.642Z,36.40
2023-02-14T14:50:07.726Z,32.55
2023-02-14T14:52:41.336Z,35.10
2023-02-14T14:55:19.721Z,37.15
2023-02-14T14:58:03.796Z,35.35
2023-02-14T15:00:37.245Z,38.88
2023-02-14T15:03:14.796Z,38.90
2023-02-14T15:05:47.005Z,41.90
2023-02-14T15:08:23.334Z,39.28
2023-02-14T15:10:58.686Z,38.08
2023-02-14T15:13:50.618Z,42.85
2023-02-14T15:16:21.493Z,41.58
2023-02-14T15:18:49.570Z,41.83
2023-02-14T15:21:16.896Z,53.90
2023-02-14T15:23:44.126Z,67.47
2023-02-14T15:26:18.075Z,72.15
2023-02-14T15:28:54.053Z,69.65
2023-02-14T15:31:20.925Z,65.60
2023-02-14T15:33:50.276Z,66.22
2023-02-14T15:36:21.172Z,58.72
2023-02-14T15:38:51.038Z,57.35
2023-02-14T15:41:20.086Z,52.08
2023-02-14T15:43:54.090Z,53.50
2023-02-14T15:46:33.240Z,59.30
2023-02-14T15:49:01.397Z,60.78
2023-02-14T15:51:37.437Z,55.45
2023-02-14T15:54:18.403Z,54.97
2023-02-14T15:56:49.376Z,63.43
2023-02-14T15:59:22.796Z,65.00
2023-02-14T16:01:53.895Z,62.50
2023-02-14T16:04:26.085Z,58.40
2023-02-14T16:07:20.572Z,57.22
2023-02-14T16:09:48.368Z,54.00
2023-02-14T16:12:31.431Z,60.78
2023-02-14T16:15:20.545Z,60.13
2023-02-14T16:17:50.923Z,53.95
2023-02-14T16:20:23.700Z,57.38
2023-02-14T16:22:50.896Z,51.57
2023-02-14T16:25:22.994Z,49.72
2023-02-14T16:27:54.377Z,48.75
2023-02-14T16:30:23.811Z,44.42
2023-02-14T16:32:52.596Z,41.13
2023-02-14T16:35:21.770Z,42.10
2023-02-14T16:37:51.679Z,39.30
2023-02-14T16:40:20.950Z,38.08
2023-02-14T16:42:49.976Z,38.30
2023-02-14T16:45:18.230Z,42.22
2023-02-14T16:47:49.178Z,42.37
2023-02-14T16:50:16.219Z,48.05
2023-02-14T16:52:46.627Z,37.72
2023-02-14T16:55:20.244Z,41.25
2023-02-14T16:57:53.366Z,45.45
2023-02-14T17:00:22.862Z,46.17
2023-02-14T17:02:49.958Z,35.10
2023-02-14T17:05:19.314Z,39.88
2023-02-14T17:07:45.831Z,44.05
2023-02-14T17:10:18.360Z,39.95
2023-02-14T17:12:53.160Z,37.23
2023-02-14T17:15:26.532Z,45.20
2023-02-14T17:17:59.393Z,40.85
2023-02-14T17:20:31.015Z,42.25
2023-02-14T17:22:58.309Z,38.85
2023-02-14T17:25:27.389Z,41.20
2023-02-14T17:27:56.513Z,40.40
2023-02-14T17:30:26.175Z,43.67
2023-02-14T17:32:52.706Z,42.20
2023-02-14T17:35:22.016Z,43.30
2023-02-14T17:37:48.555Z,47.83
2023-02-14T17:40:17.613Z,49.47
2023-02-14T17:42:44.975Z,49.03
2023-02-14T17:45:14.049Z,66.68
2023-02-14T17:47:45.208Z,61.10
2023-02-14T17:50:13.191Z,81.70
2023-02-14T17:52:42.035Z,76.78
2023-02-14T17:55:11.430Z,95.75
2023-02-14T17:57:40.865Z,110.13
2023-02-14T18:00:11.818Z,76.22
2023-02-14T18:02:38.845Z,154.83
2023-02-14T18:05:08.189Z,105.90
2023-02-14T18:07:38.189Z,77.65
2023-02-14T18:10:05.942Z,66.32
2023-02-14T18:12:32.825Z,97.40
2023-02-14T18:14:59.618Z,77.67
2023-02-14T18:17:28.657Z,95.38
2023-02-14T18:19:57.420Z,106.68
2023-02-14T18:22:24.846Z,104.20
2023-02-14T18:24:51.416Z,118.10
2023-02-14T18:27:18.001Z,143.23
2023-02-14T18:29:44.605Z,76.32
2023-02-14T18:32:16.046Z,127.53
2023-02-14T18:34:42.575Z,138.55
2023-02-14T18:37:15.187Z,58.40
2023-02-14T18:39:41.843Z,66.83
2023-02-14T18:42:08.595Z,119.88
2023-02-14T18:44:35.485Z,153.80
2023-02-14T18:47:06.462Z,80.13
2023-02-14T18:49:35.299Z,61.15
2023-02-14T18:52:01.941Z,63.33
2023-02-14T18:54:32.079Z,66.70
2023-02-14T18:56:58.688Z,47.35
2023-02-14T18:59:25.203Z,51.33
2023-02-14T19:01:54.541Z,49.70
2023-02-14T19:04:24.099Z,62.40
2023-02-14T19:06:53.262Z,80.35
2023-02-14T19:09:22.358Z,75.28
2023-02-14T19:11:51.278Z,87.28
2023-02-14T19:14:18.367Z,55.30
2023-02-14T19:16:51.947Z,56.77
2023-02-14T19:19:22.818Z,152.23
2023-02-14T19:21:53.077Z,111.97
2023-02-14T19:24:20.240Z,72.10
2023-02-14T19:26:47.262Z,95.30
2023-02-14T19:29:18.257Z,106.47
2023-02-14T19:31:48.753Z,144.48
2023-02-14T19:34:29.679Z,164.30
2023-02-14T19:36:58.856Z,167.70
2023-02-14T19:39:25.704Z,126.05
2023-02-14T19:41:52.363Z,63.33
2023-02-14T19:44:21.083Z,107.45
2023-02-14T19:46:51.040Z,70.28
2023-02-14T19:49:19.776Z,44.42
2023-02-14T19:51:52.342Z,56.47
2023-02-14T19:54:25.629Z,78.77
2023-02-14T19:56:53.872Z,69.53
2023-02-14T19:59:21.786Z,76.97
2023-02-14T20:01:56.447Z,75.72
2023-02-14T20:04:28.545Z,49.13
2023-02-14T20:06:56.119Z,58.13
2023-02-14T20:09:23.592Z,71.20
2023-02-14T20:11:57.792Z,45.85
2023-02-14T20:14:30.511Z,53.15
2023-02-14T20:17:00.316Z,67.60
2023-02-14T20:19:35.704Z,72.50
2023-02-14T20:22:04.764Z,44.50
2023-02-14T20:24:32.463Z,42.60
2023-02-14T20:27:00.469Z,49.15
2023-02-14T20:29:27.336Z,43.10
2023-02-14T20:32:03.313Z,36.83
2023-02-14T20:34:29.952Z,40.45
2023-02-14T20:36:59.313Z,49.03
2023-02-14T20:39:36.576Z,37.50
2023-02-14T20:42:04.222Z,45.45
2023-02-14T20:44:30.818Z,34.60
2023-02-14T20:46:57.593Z,41.75
2023-02-14T20:49:26.041Z,58.88
2023-02-14T20:51:56.025Z,47.58
2023-02-14T20:54:25.680Z,54.83
2023-02-14T20:56:55.136Z,59.70
2023-02-14T20:59:27.150Z,51.60
2023-02-14T21:01:55.372Z,76.10
2023-02-14T21:04:22.963Z,56.72
2023-02-14T21:06:49.612Z,39.08
2023-02-14T21:09:18.510Z,39.63
2023-02-14T21:11:45.159Z,37.30
2023-02-14T21:14:14.288Z,36.22
2023-02-14T21:16:43.220Z,41.25
2023-02-14T21:19:09.845Z,38.10
2023-02-14T21:21:39.710Z,40.33
2023-02-14T21:24:14.680Z,51.42
2023-02-14T21:26:41.741Z,29.52
2023-02-14T21:29:11.342Z,32.17
2023-02-14T21:31:38.654Z,38.47
2023-02-14T21:34:08.124Z,32.03
2023-02-14T21:36:37.956Z,42.40
2023-02-14T21:39:07.683Z,31.33
2023-02-14T21:41:35.230Z,34.08
2023-02-14T21:44:07.655Z,33.42
2023-02-14T21:46:38.872Z,44.87
2023-02-14T21:49:24.580Z,37.78
2023-02-14T21:51:51.300Z,38.28
2023-02-14T21:54:18.000Z,37.65
2023-02-14T21:56:44.817Z,28.17
2023-02-14T21:59:11.647Z,36.60
2023-02-14T22:01:42.528Z,37.22
2023-02-14T22:04:11.431Z,30.00
2023-02-14T22:06:40.281Z,51.13
2023-02-14T22:09:07.506Z,32.47
2023-02-14T22:11:35.305Z,35.63
2023-02-14T22:14:04.665Z,25.70
2023-02-14T22:16:31.355Z,28.58
2023-02-14T22:19:00.236Z,28.85
2023-02-14T22:21:33.354Z,26.23
2023-02-14T22:24:01.352Z,23.10
2023-02-14T22:26:34.649Z,26.48
2023-02-14T22:29:02.496Z,21.77
2023-02-14T22:31:33.435Z,24.50
2023-02-14T22:34:03.079Z,23.42
2023-02-14T22:36:31.836Z,26.93
2023-02-14T22:39:00.715Z,25.98
2023-02-14T22:41:30.065Z,23.98
2023-02-14T22:43:58.903Z,26.02
2023-02-14T22:46:28.082Z,22.33
2023-02-14T22:48:56.262Z,20.10
2023-02-14T22:51:24.201Z,20.42
2023-02-14T22:53:53.345Z,20.55
2023-02-14T22:56:25.601Z,22.73
2023-02-14T22:58:56.901Z,22.60
2023-02-14T23:01:31.278Z,24.53
2023-02-14T23:04:00.150Z,21.25
2023-02-14T23:06:33.701Z,24.08
2023-02-14T23:09:05.993Z,31.27
2023-02-14T23:11:36.523Z,47.92
2023-02-14T23:14:24.408Z,20.83
2023-02-14T23:17:10.210Z,20.98
2023-02-14T23:19:56.052Z,24.98
2023-02-14T23:22:34.650Z,21.75
2023-02-14T23:25:07.636Z,21.08
2023-02-14T23:27:43.525Z,29.67
2023-02-14T23:30:15.113Z,20.42
2023-02-14T23:32:42.469Z,20.52
2023-02-14T23:35:12.095Z,21.40
2023-02-14T23:37:41.782Z,21.35
2023-02-14T23:40:11.772Z,24.83
2023-02-14T23:42:38.319Z,21.70
2023-02-14T23:45:24.180Z,30.08
2023-02-14T23:47:52.848Z,29.90
2023-02-14T23:50:19.387Z,40.92
2023-02-14T23:52:48.886Z,38.47
2023-02-14T23:55:15.402Z,45.78
2023-02-14T23:57:42.017Z,43.85
